Terminal Aerodrome Forecast
Issued by NWS

Home | Current Version | Previous Version | Text Only | Print | Product List | Glossary On
Versions: 1 2 3 4 5 6 7 8 9 10 11 12 13
000
FTUS44 KBMX 291120
TAFANB
TAF
KANB 291120Z 2912/3012 03003KT P6SM FEW250
     FM291800 34005KT P6SM SCT050 BKN100
     FM300300 32002KT P6SM SKC
     FM300900 00000KT 4SM BR SKC=

USA.gov is the U.S. government's official web portal to all federal, state and local government web resources and services.